createdAt,value
2023-05-04T00:00:08.534Z,101299.50
2023-05-04T00:02:36.092Z,101304.06
2023-05-04T00:05:04.462Z,101308.16
2023-05-04T00:07:31.814Z,101300.78
2023-05-04T00:10:00.557Z,101298.25
2023-05-04T00:12:28.344Z,101295.75
2023-05-04T00:14:57.109Z,101298.00
2023-05-04T00:17:24.562Z,101305.69
2023-05-04T00:19:51.941Z,101298.09
2023-05-04T00:22:19.482Z,101295.94
2023-05-04T00:24:46.903Z,101303.34
2023-05-04T00:27:14.301Z,101300.53
2023-05-04T00:29:41.692Z,101290.66
2023-05-04T00:32:10.739Z,101291.41
2023-05-04T00:34:38.442Z,101288.19
2023-05-04T00:37:06.678Z,101288.44
2023-05-04T00:39:35.124Z,101289.22
2023-05-04T00:42:03.045Z,101285.94
2023-05-04T00:44:30.508Z,101276.41
2023-05-04T00:46:58.343Z,101282.16
2023-05-04T00:49:27.591Z,101285.25
2023-05-04T00:51:57.625Z,101273.34
2023-05-04T00:54:25.923Z,101272.34
2023-05-04T00:56:53.781Z,101274.44
2023-05-04T00:59:21.153Z,101280.09
2023-05-04T01:01:48.808Z,101284.16
2023-05-04T01:04:16.748Z,101290.72
2023-05-04T01:06:49.559Z,101280.66
2023-05-04T01:09:24.712Z,101285.16
2023-05-04T01:11:59.146Z,101280.59
2023-05-04T01:14:26.683Z,101273.22
2023-05-04T01:16:57.491Z,101271.63
2023-05-04T01:19:27.543Z,101276.88
2023-05-04T01:21:57.002Z,101281.91
2023-05-04T01:24:25.097Z,101273.63
2023-05-04T01:26:55.962Z,101271.72
2023-05-04T01:29:29.477Z,101266.66
2023-05-04T01:31:57.673Z,101271.28
2023-05-04T01:34:25.164Z,101269.63
2023-05-04T01:36:53.296Z,101269.00
2023-05-04T01:39:22.076Z,101274.97
2023-05-04T01:41:49.649Z,101271.72
2023-05-04T01:44:17.378Z,101278.34
2023-05-04T01:46:44.890Z,101278.31
2023-05-04T01:49:12.305Z,101277.03
2023-05-04T01:51:39.686Z,101273.38
2023-05-04T01:54:07.081Z,101275.09
2023-05-04T01:56:35.842Z,101274.75
2023-05-04T01:59:03.230Z,101275.56
2023-05-04T02:01:30.738Z,101277.00
2023-05-04T02:03:58.287Z,101269.88
2023-05-04T02:06:25.856Z,101280.44
2023-05-04T02:08:54.256Z,101273.25
2023-05-04T02:11:21.664Z,101268.22
2023-05-04T02:13:50.407Z,101266.63
2023-05-04T02:16:17.983Z,101271.88
2023-05-04T02:18:46.449Z,101271.88
2023-05-04T02:21:13.896Z,101282.00
2023-05-04T02:23:41.277Z,101278.38
2023-05-04T02:26:08.675Z,101276.75
2023-05-04T02:28:36.038Z,101284.97
2023-05-04T02:31:04.752Z,101281.63
2023-05-04T02:33:32.085Z,101277.53
2023-05-04T02:35:59.505Z,101275.06
2023-05-04T02:38:27.581Z,101281.44
2023-05-04T02:40:54.982Z,101280.91
2023-05-04T02:43:22.390Z,101278.66
2023-05-04T02:45:49.795Z,101280.06
2023-05-04T02:48:18.551Z,101278.97
2023-05-04T02:50:46.617Z,101274.03
2023-05-04T02:53:13.993Z,101281.75
2023-05-04T02:55:41.359Z,101285.66
2023-05-04T02:58:08.765Z,101277.34
2023-05-04T03:00:36.278Z,101286.72
2023-05-04T03:03:03.802Z,101283.97
2023-05-04T03:05:32.656Z,101280.63
2023-05-04T03:08:00.140Z,101279.25
2023-05-04T03:10:27.554Z,101282.84
2023-05-04T03:12:55.025Z,101281.72
2023-05-04T03:15:22.961Z,101280.34
2023-05-04T03:17:50.364Z,101278.47
2023-05-04T03:20:19.101Z,101281.47
2023-05-04T03:22:48.115Z,101275.94
2023-05-04T03:25:15.573Z,101268.75
2023-05-04T03:27:42.970Z,101281.81
2023-05-04T03:30:11.708Z,101279.31
2023-05-04T03:32:39.126Z,101280.13
2023-05-04T03:35:07.368Z,101286.78
2023-05-04T03:37:34.789Z,101282.09
2023-05-04T03:40:03.695Z,101283.50
2023-05-04T03:42:31.468Z,101278.22
2023-05-04T03:44:58.881Z,101274.59
2023-05-04T03:47:26.310Z,101268.50
2023-05-04T03:49:53.682Z,101274.56
2023-05-04T03:52:21.115Z,101274.28
2023-05-04T03:54:48.506Z,101271.78
2023-05-04T03:57:17.254Z,101282.88
2023-05-04T03:59:44.817Z,101272.91
2023-05-04T04:02:13.058Z,101275.94
2023-05-04T04:04:40.659Z,101276.19
2023-05-04T04:07:08.124Z,101282.00
2023-05-04T04:09:35.623Z,101281.69
2023-05-04T04:12:03.132Z,101278.38
2023-05-04T04:14:31.861Z,101279.47
2023-05-04T04:16:59.257Z,101272.53
2023-05-04T04:19:26.683Z,101266.25
2023-05-04T04:21:54.164Z,101266.25
2023-05-04T04:24:22.027Z,101274.47
2023-05-04T04:26:49.424Z,101273.69
2023-05-04T04:29:16.804Z,101272.03
2023-05-04T04:31:46.875Z,101273.09
2023-05-04T04:34:14.330Z,101272.91
2023-05-04T04:36:45.041Z,101273.13
2023-05-04T04:39:12.506Z,101275.03
2023-05-04T04:41:39.902Z,101279.28
2023-05-04T04:44:07.500Z,101284.84
2023-05-04T04:46:36.754Z,101276.47
2023-05-04T04:49:05.525Z,101280.28
2023-05-04T04:51:32.967Z,101276.69
2023-05-04T04:54:00.348Z,101274.41
2023-05-04T04:56:28.050Z,101266.38
2023-05-04T04:58:55.440Z,101263.00
2023-05-04T05:01:22.881Z,101283.34
2023-05-04T05:03:50.806Z,101277.38
2023-05-04T05:06:20.677Z,101274.16
2023-05-04T05:08:48.051Z,101282.50
2023-05-04T05:11:15.832Z,101278.94
2023-05-04T05:13:43.208Z,101279.81
2023-05-04T05:16:10.664Z,101283.19
2023-05-04T05:18:38.100Z,101273.84
2023-05-04T05:21:06.172Z,101271.41
2023-05-04T05:23:35.573Z,101264.69
2023-05-04T05:26:03.485Z,101267.44
2023-05-04T05:28:31.003Z,101265.22
2023-05-04T05:30:58.416Z,101256.38
2023-05-04T05:33:25.820Z,101263.19
2023-05-04T05:35:54.024Z,101262.97
2023-05-04T05:38:21.697Z,101263.56
2023-05-04T05:40:50.468Z,101257.41
2023-05-04T05:43:17.860Z,101254.97
2023-05-04T05:45:45.230Z,101254.63
2023-05-04T05:48:12.659Z,101250.75
2023-05-04T05:50:40.110Z,101259.56
2023-05-04T05:53:07.510Z,101250.59
2023-05-04T05:55:34.914Z,101259.34
2023-05-04T05:58:03.901Z,101256.25
2023-05-04T06:00:31.417Z,101265.59
2023-05-04T06:02:59.300Z,101259.56
2023-05-04T06:05:26.831Z,101256.16
2023-05-04T06:07:54.238Z,101259.25
2023-05-04T06:10:21.638Z,101255.13
2023-05-04T06:12:49.183Z,101252.31
2023-05-04T06:15:18.521Z,101252.91
2023-05-04T06:17:45.969Z,101246.75
2023-05-04T06:20:13.961Z,101243.25
2023-05-04T06:22:41.389Z,101233.97
2023-05-04T06:25:09.305Z,101232.88
2023-05-04T06:27:37.043Z,101235.28
2023-05-04T06:30:05.405Z,101237.94
2023-05-04T06:32:35.148Z,101228.25
2023-05-04T06:35:03.009Z,101228.72
2023-05-04T06:37:30.444Z,101222.84
2023-05-04T06:39:57.851Z,101231.63
2023-05-04T06:42:25.504Z,101220.03
2023-05-04T06:44:53.202Z,101232.38
2023-05-04T06:47:20.784Z,101227.47
2023-05-04T06:49:50.800Z,101227.25
2023-05-04T06:52:18.244Z,101224.84
2023-05-04T06:54:46.235Z,101236.09
2023-05-04T06:57:13.677Z,101234.94
2023-05-04T06:59:41.084Z,101228.97
2023-05-04T07:02:08.479Z,101213.84
2023-05-04T07:04:38.916Z,101212.94
2023-05-04T07:07:07.586Z,101217.53
2023-05-04T07:09:35.106Z,101214.78
2023-05-04T07:12:02.906Z,101205.53
2023-05-04T07:14:30.280Z,101208.72
2023-05-04T07:16:57.707Z,101208.25
2023-05-04T07:19:25.154Z,101202.44
2023-05-04T07:21:52.510Z,101201.38
2023-05-04T07:24:21.232Z,101197.06
2023-05-04T07:26:48.591Z,101195.16
2023-05-04T07:29:18.206Z,101190.38
2023-05-04T07:31:45.638Z,101183.09
2023-05-04T07:34:13.110Z,101185.50
2023-05-04T07:36:42.035Z,101176.00
2023-05-04T07:39:10.884Z,101180.94
2023-05-04T07:41:39.596Z,101176.50
2023-05-04T07:44:08.699Z,101174.00
2023-05-04T07:46:36.128Z,101167.00
2023-05-04T07:49:03.856Z,101166.44
2023-05-04T07:51:31.665Z,101162.03
2023-05-04T07:53:59.087Z,101161.25
2023-05-04T07:56:26.576Z,101158.53
2023-05-04T07:58:55.944Z,101154.22
2023-05-04T08:01:24.618Z,101149.72
2023-05-04T08:03:52.080Z,101157.84
2023-05-04T08:06:19.526Z,101157.22
2023-05-04T08:08:51.420Z,101159.13
2023-05-04T08:11:21.106Z,101160.41
2023-05-04T08:13:49.323Z,101153.63
2023-05-04T08:16:18.096Z,101153.25
2023-05-04T08:18:45.546Z,101149.56
2023-05-04T08:21:13.288Z,101140.53
2023-05-04T08:23:40.682Z,101149.00
2023-05-04T08:26:08.067Z,101136.66
2023-05-04T08:28:37.491Z,101146.81
2023-05-04T08:31:04.945Z,101139.81
2023-05-04T08:33:34.084Z,101144.91
2023-05-04T08:36:01.609Z,101145.81
2023-05-04T08:38:29.817Z,101147.19
2023-05-04T08:40:57.553Z,101142.22
2023-05-04T08:43:25.300Z,101128.38
2023-05-04T08:45:52.859Z,101130.13
2023-05-04T08:48:20.323Z,101140.94
2023-05-04T08:50:49.323Z,101124.59
2023-05-04T08:53:20.073Z,101120.38
2023-05-04T08:55:49.901Z,101128.03
2023-05-04T08:58:19.892Z,101122.34
2023-05-04T09:00:47.653Z,101124.00
2023-05-04T09:03:16.886Z,101113.69
2023-05-04T09:05:46.084Z,101126.47
2023-05-04T09:08:16.194Z,101133.09
2023-05-04T09:10:43.621Z,101130.38
2023-05-04T09:13:11.352Z,101126.16
2023-05-04T09:15:38.858Z,101115.09
2023-05-04T09:18:09.739Z,101102.88
2023-05-04T09:20:45.193Z,101108.84
2023-05-04T09:23:13.157Z,101113.09
2023-05-04T09:25:49.268Z,101104.81
2023-05-04T09:28:18.181Z,101108.19
2023-05-04T09:30:45.822Z,101101.53
2023-05-04T09:33:13.395Z,101111.63
2023-05-04T09:35:42.813Z,101098.56
2023-05-04T09:38:10.237Z,101109.34
2023-05-04T09:40:40.967Z,101102.63
2023-05-04T09:43:10.688Z,101099.53
2023-05-04T09:45:42.716Z,101102.69
2023-05-04T09:48:17.262Z,101094.13
2023-05-04T09:50:52.774Z,101095.78
2023-05-04T09:53:23.024Z,101097.72
2023-05-04T09:55:59.977Z,101092.03
2023-05-04T09:58:31.805Z,101095.38
2023-05-04T10:01:01.510Z,101092.47
2023-05-04T10:03:29.986Z,101081.91
2023-05-04T10:05:59.112Z,101080.34
2023-05-04T10:08:27.992Z,101074.56
2023-05-04T10:10:55.602Z,101075.09
2023-05-04T10:13:22.983Z,101061.31
2023-05-04T10:16:02.689Z,101059.19
2023-05-04T10:18:59.408Z,101064.09
2023-05-04T10:21:33.586Z,101062.47
2023-05-04T10:24:30.638Z,101046.44
2023-05-04T10:27:09.774Z,101053.59
2023-05-04T10:29:38.321Z,101055.78
2023-05-04T10:32:17.612Z,101047.75
2023-05-04T10:34:45.330Z,101041.25
2023-05-04T10:37:17.786Z,101044.31
2023-05-04T10:39:52.675Z,101027.22
2023-05-04T10:42:20.424Z,101026.38
2023-05-04T10:44:52.128Z,101024.56
2023-05-04T10:47:30.718Z,101024.75
2023-05-04T10:50:03.077Z,101013.47
2023-05-04T10:52:30.599Z,101009.19
2023-05-04T10:55:02.597Z,101010.63
2023-05-04T10:57:31.100Z,101000.41
2023-05-04T10:59:59.809Z,100999.66
2023-05-04T11:02:32.475Z,101001.59
2023-05-04T11:05:04.284Z,100995.19
2023-05-04T11:07:36.646Z,100993.72
2023-05-04T11:10:04.755Z,100992.47
2023-05-04T11:12:32.675Z,100989.56
2023-05-04T11:15:08.367Z,100988.09
2023-05-04T11:17:48.562Z,100977.75
2023-05-04T11:20:23.440Z,100976.56
2023-05-04T11:22:51.724Z,100972.72
2023-05-04T11:25:28.179Z,100959.31
2023-05-04T11:27:55.656Z,100960.34
2023-05-04T11:30:31.524Z,100950.78
2023-05-04T11:33:00.923Z,100960.91
2023-05-04T11:35:28.463Z,100960.84
2023-05-04T11:37:56.350Z,100953.19
2023-05-04T11:40:24.711Z,100949.38
2023-05-04T11:42:56.136Z,100945.03
2023-05-04T11:45:27.010Z,100939.50
2023-05-04T11:47:56.491Z,100935.53
2023-05-04T11:50:27.308Z,100942.66
2023-05-04T11:53:04.906Z,100941.00
2023-05-04T11:55:33.011Z,100932.53
2023-05-04T11:58:01.442Z,100934.94
2023-05-04T12:00:38.606Z,100930.88
2023-05-04T12:03:07.438Z,100932.09
2023-05-04T12:05:37.633Z,100925.59
2023-05-04T12:08:07.377Z,100925.44
2023-05-04T12:10:35.258Z,100916.66
2023-05-04T12:13:03.146Z,100912.63
2023-05-04T12:15:32.921Z,100914.94
2023-05-04T12:18:02.846Z,100910.66
2023-05-04T12:20:31.623Z,100907.31
2023-05-04T12:23:06.821Z,100912.50
2023-05-04T12:25:34.528Z,100899.88
2023-05-04T12:28:04.631Z,100901.13
2023-05-04T12:30:32.200Z,100899.88
2023-05-04T12:32:59.725Z,100894.75
2023-05-04T12:35:27.219Z,100892.28
2023-05-04T12:37:54.808Z,100886.22
2023-05-04T12:40:28.794Z,100897.13
2023-05-04T12:42:56.711Z,100885.00
2023-05-04T12:45:24.090Z,100889.06
2023-05-04T12:47:51.523Z,100890.06
2023-05-04T12:50:18.918Z,100876.25
2023-05-04T12:52:46.298Z,100884.47
2023-05-04T12:55:13.836Z,100876.38
2023-05-04T12:57:44.554Z,100863.38
2023-05-04T13:00:12.938Z,100867.94
2023-05-04T13:02:40.338Z,100859.75
2023-05-04T13:05:09.066Z,100855.78
2023-05-04T13:07:36.495Z,100861.53
2023-05-04T13:10:04.118Z,100861.19
2023-05-04T13:12:31.766Z,100859.84
2023-05-04T13:15:00.934Z,100853.94
2023-05-04T13:17:29.622Z,100850.72
2023-05-04T13:19:57.072Z,100849.16
2023-05-04T13:22:24.451Z,100848.06
2023-05-04T13:24:51.810Z,100842.34
2023-05-04T13:27:19.237Z,100841.97
2023-05-04T13:29:46.764Z,100839.50
2023-05-04T13:32:15.462Z,100843.59
2023-05-04T13:34:43.468Z,100839.94
2023-05-04T13:37:12.429Z,100844.41
2023-05-04T13:39:41.153Z,100833.78
2023-05-04T13:42:08.759Z,100828.16
2023-05-04T13:44:36.869Z,100823.31
2023-05-04T13:47:04.916Z,100822.28
2023-05-04T13:49:33.980Z,100814.06
2023-05-04T13:52:02.743Z,100809.91
2023-05-04T13:54:30.275Z,100811.84
2023-05-04T13:56:57.682Z,100809.50
2023-05-04T13:59:25.207Z,100814.69
2023-05-04T14:01:53.207Z,100806.63
2023-05-04T14:04:20.929Z,100794.91
2023-05-04T14:06:51.107Z,100800.59
2023-05-04T14:09:19.118Z,100792.31
2023-05-04T14:11:47.478Z,100785.00
2023-05-04T14:14:15.266Z,100778.22
2023-05-04T14:16:42.719Z,100779.88
2023-05-04T14:19:10.156Z,100773.03
2023-05-04T14:21:37.691Z,100779.06
2023-05-04T14:24:06.655Z,100774.63
2023-05-04T14:26:35.035Z,100779.34
2023-05-04T14:29:02.618Z,100769.34
2023-05-04T14:31:30.124Z,100767.69
2023-05-04T14:33:57.522Z,100760.72
2023-05-04T14:36:24.988Z,100763.94
2023-05-04T14:38:53.353Z,100750.66
2023-05-04T14:41:22.054Z,100762.38
2023-05-04T14:43:49.443Z,100755.50
2023-05-04T14:46:16.846Z,100753.31
2023-05-04T14:48:44.259Z,100756.66
2023-05-04T14:51:13.309Z,100749.66
2023-05-04T14:53:41.015Z,100737.03
2023-05-04T14:56:08.551Z,100734.19
2023-05-04T14:58:37.368Z,100733.09
2023-05-04T15:01:04.947Z,100729.00
2023-05-04T15:03:32.424Z,100726.41
2023-05-04T15:05:59.952Z,100729.25
2023-05-04T15:08:27.351Z,100714.94
2023-05-04T15:10:58.082Z,100723.19
2023-05-04T15:13:25.751Z,100726.63
2023-05-04T15:15:54.569Z,100725.09
2023-05-04T15:18:23.884Z,100720.91
2023-05-04T15:20:51.264Z,100723.78
2023-05-04T15:23:18.676Z,100718.22
2023-05-04T15:25:46.104Z,100706.84
2023-05-04T15:28:13.535Z,100705.66
2023-05-04T15:30:42.077Z,100703.63
2023-05-04T15:33:11.131Z,100702.81
2023-05-04T15:35:39.031Z,100699.56
2023-05-04T15:38:06.454Z,100698.31
2023-05-04T15:40:33.855Z,100702.41
2023-05-04T15:43:01.223Z,100694.25
2023-05-04T15:45:28.673Z,100694.66
2023-05-04T15:47:58.313Z,100683.66
2023-05-04T15:50:27.168Z,100687.81
2023-05-04T15:52:54.606Z,100686.09
2023-05-04T15:55:25.350Z,100689.72
2023-05-04T15:57:54.125Z,100682.94
2023-05-04T16:00:22.210Z,100683.75
2023-05-04T16:02:49.636Z,100671.19
2023-05-04T16:05:17.047Z,100669.97
2023-05-04T16:07:45.771Z,100677.69
2023-05-04T16:10:13.228Z,100671.56
2023-05-04T16:12:41.359Z,100674.84
2023-05-04T16:15:09.160Z,100671.56
2023-05-04T16:17:36.671Z,100666.72
2023-05-04T16:20:05.848Z,100671.16
2023-05-04T16:22:34.050Z,100668.69
2023-05-04T16:27:53.993Z,100663.00
2023-05-04T16:30:21.624Z,100664.19
2023-05-04T16:32:49.085Z,100665.78
2023-05-04T16:35:16.531Z,100668.22
2023-05-04T16:37:43.981Z,100662.94
2023-05-04T16:40:15.073Z,100661.66
2023-05-04T16:42:42.617Z,100666.03
2023-05-04T16:45:13.302Z,100670.56
2023-05-04T16:47:41.436Z,100660.34
2023-05-04T16:50:09.877Z,100662.53
2023-05-04T16:52:37.307Z,100664.13
2023-05-04T16:55:05.574Z,100660.75
2023-05-04T16:57:34.292Z,100661.28
2023-05-04T17:00:05.658Z,100655.81
2023-05-04T17:02:33.373Z,100656.03
2023-05-04T17:05:00.828Z,100648.81
2023-05-04T17:07:28.602Z,100650.72
2023-05-04T17:09:55.997Z,100648.72
2023-05-04T17:12:24.051Z,100648.06
2023-05-04T17:14:52.760Z,100642.75
2023-05-04T17:17:20.167Z,100654.69
2023-05-04T17:19:47.535Z,100653.00
2023-05-04T17:22:14.941Z,100655.03
2023-05-04T17:24:44.773Z,100647.34
2023-05-04T17:27:13.288Z,100645.13
2023-05-04T17:29:44.063Z,100652.16
2023-05-04T17:32:12.861Z,100645.59
2023-05-04T17:34:40.271Z,100649.50
2023-05-04T17:37:07.635Z,100650.00
2023-05-04T17:39:35.066Z,100653.03
2023-05-04T17:42:02.898Z,100644.63
2023-05-04T17:44:30.527Z,100652.59
2023-05-04T17:46:57.929Z,100657.91
2023-05-04T17:49:30.046Z,100660.75
2023-05-04T17:51:57.598Z,100664.88
2023-05-04T17:54:25.076Z,100656.75
2023-05-04T17:56:52.472Z,100651.00
2023-05-04T17:59:19.970Z,100671.38
2023-05-04T18:01:47.369Z,100679.50
2023-05-04T18:04:14.820Z,100672.28
2023-05-04T18:06:43.577Z,100680.25
2023-05-04T18:09:11.602Z,100686.19
2023-05-04T18:11:39.038Z,100694.78
2023-05-04T18:14:07.186Z,100693.72
2023-05-04T18:16:37.617Z,100699.88
2023-05-04T18:19:06.390Z,100702.94
2023-05-04T18:21:36.573Z,100705.16
2023-05-04T18:24:06.056Z,100708.69
2023-05-04T18:26:33.593Z,100704.19
2023-05-04T18:29:11.178Z,100699.81
2023-05-04T18:31:45.679Z,100685.34
2023-05-04T18:34:13.076Z,100687.91
2023-05-04T18:36:40.652Z,100691.13
2023-05-04T18:39:09.588Z,100689.69
2023-05-04T18:41:36.997Z,100679.72
2023-05-04T18:44:05.999Z,100676.00
2023-05-04T18:46:33.375Z,100675.44
2023-05-04T18:49:00.748Z,100684.00
2023-05-04T18:51:28.442Z,100683.78
2023-05-04T18:53:55.827Z,100684.09
2023-05-04T18:56:24.539Z,100681.19
2023-05-04T18:58:52.051Z,100683.03
2023-05-04T19:01:19.654Z,100685.19
2023-05-04T19:03:47.188Z,100690.75
2023-05-04T19:06:14.597Z,100688.50
2023-05-04T19:08:41.994Z,100691.31
2023-05-04T19:11:09.395Z,100695.66
2023-05-04T19:13:38.123Z,100701.81
2023-05-04T19:16:06.300Z,100707.31
2023-05-04T19:18:34.784Z,100707.56
2023-05-04T19:21:05.336Z,100702.53
2023-05-04T19:23:32.837Z,100698.63
2023-05-04T19:26:00.328Z,100703.50
2023-05-04T19:28:27.879Z,100698.59
2023-05-04T19:30:56.805Z,100704.41
2023-05-04T19:33:36.366Z,100698.25
2023-05-04T19:36:08.209Z,100696.34
2023-05-04T19:38:37.690Z,100703.78
2023-05-04T19:41:05.347Z,100707.28
2023-05-04T19:43:34.013Z,100706.75
2023-05-04T19:46:04.136Z,100699.25
2023-05-04T19:48:31.536Z,100707.50
2023-05-04T19:50:58.974Z,100701.13
2023-05-04T19:53:26.680Z,100695.19
2023-05-04T19:55:54.646Z,100704.56
2023-05-04T19:58:25.819Z,100697.22
2023-05-04T20:00:53.485Z,100698.31
2023-05-04T20:03:22.532Z,100699.22
2023-05-04T20:05:51.533Z,100688.22
2023-05-04T20:08:19.027Z,100687.31
2023-05-04T20:10:46.521Z,100685.56
2023-05-04T20:13:14.059Z,100687.00
2023-05-04T20:15:42.490Z,100685.50
2023-05-04T20:18:10.018Z,100686.09
2023-05-04T20:20:39.237Z,100685.31
2023-05-04T20:23:07.347Z,100689.88
2023-05-04T20:25:34.796Z,100693.16
2023-05-04T20:28:02.143Z,100693.47
2023-05-04T20:30:29.564Z,100686.22
2023-05-04T20:32:56.980Z,100685.31
2023-05-04T20:35:24.552Z,100688.59
2023-05-04T20:37:53.620Z,100689.75
2023-05-04T20:40:25.040Z,100687.75
2023-05-04T20:42:55.096Z,100693.97
2023-05-04T20:45:22.531Z,100699.56
2023-05-04T20:47:50.213Z,100700.25
2023-05-04T20:50:18.795Z,100696.97
2023-05-04T20:52:46.162Z,100698.28
2023-05-04T20:55:14.950Z,100697.34
2023-05-04T20:57:42.400Z,100699.31
2023-05-04T21:00:11.282Z,100692.53
2023-05-04T21:02:38.773Z,100698.28
2023-05-04T21:05:06.996Z,100699.91
2023-05-04T21:07:34.407Z,100691.25
2023-05-04T21:10:01.838Z,100690.78
2023-05-04T21:12:30.567Z,100697.53
2023-05-04T21:14:57.970Z,100699.53
2023-05-04T21:17:26.330Z,100698.72
2023-05-04T21:19:53.717Z,100691.34
2023-05-04T21:22:21.218Z,100690.28
2023-05-04T21:24:48.641Z,100690.41
2023-05-04T21:27:16.156Z,100687.84
2023-05-04T21:29:44.854Z,100696.00
2023-05-04T21:32:12.320Z,100684.44
2023-05-04T21:34:39.896Z,100687.94
2023-05-04T21:37:07.254Z,100683.50
2023-05-04T21:39:34.675Z,100678.72
2023-05-04T21:42:02.596Z,100681.69
2023-05-04T21:44:30.268Z,100676.38
2023-05-04T21:46:59.545Z,100678.16
2023-05-04T21:49:27.081Z,100676.91
2023-05-04T21:51:54.625Z,100668.53
2023-05-04T21:54:23.529Z,100684.03
2023-05-04T21:56:50.985Z,100676.56
2023-05-04T21:59:18.346Z,100665.28
2023-05-04T22:01:45.962Z,100677.94
2023-05-04T22:04:14.717Z,100672.50
2023-05-04T22:06:42.104Z,100662.03
2023-05-04T22:09:09.808Z,100670.22
2023-05-04T22:11:37.198Z,100669.34
2023-05-04T22:14:04.600Z,100670.81
2023-05-04T22:16:32.046Z,100674.66
2023-05-04T22:18:59.474Z,100672.97
2023-05-04T22:21:28.336Z,100669.09
2023-05-04T22:23:55.866Z,100670.50
2023-05-04T22:26:23.228Z,100670.59
2023-05-04T22:28:50.738Z,100676.25
2023-05-04T22:31:18.184Z,100675.22
2023-05-04T22:33:45.896Z,100678.22
2023-05-04T22:36:13.505Z,100669.09
2023-05-04T22:38:42.372Z,100666.28
2023-05-04T22:41:09.870Z,100675.25
2023-05-04T22:43:37.259Z,100683.81
2023-05-04T22:46:04.844Z,100689.81
2023-05-04T22:48:32.473Z,100681.75
2023-05-04T22:51:01.173Z,100679.84
2023-05-04T22:53:28.560Z,100677.78
2023-05-04T22:55:57.306Z,100687.53
2023-05-04T22:58:24.799Z,100684.97
2023-05-04T23:00:52.685Z,100682.97
2023-05-04T23:03:20.185Z,100689.00
2023-05-04T23:05:47.631Z,100689.81
2023-05-04T23:08:15.099Z,100679.81
2023-05-04T23:10:45.370Z,100684.59
2023-05-04T23:13:14.517Z,100681.63
2023-05-04T23:15:42.000Z,100679.16
2023-05-04T23:18:09.637Z,100672.34
2023-05-04T23:20:37.204Z,100676.13
2023-05-04T23:23:04.615Z,100667.88
2023-05-04T23:25:32.028Z,100668.69
2023-05-04T23:27:59.389Z,100668.09
2023-05-04T23:30:28.122Z,100667.56
2023-05-04T23:32:55.741Z,100671.66
2023-05-04T23:35:23.802Z,100677.56
2023-05-04T23:37:51.382Z,100673.97
2023-05-04T23:40:18.899Z,100674.63
2023-05-04T23:42:49.660Z,100669.06
2023-05-04T23:45:17.297Z,100675.66
2023-05-04T23:47:46.068Z,100666.78
2023-05-04T23:50:13.624Z,100672.06
2023-05-04T23:52:41.011Z,100668.56
2023-05-04T23:55:08.901Z,100669.56
2023-05-04T23:57:36.389Z,100667.28
